Time;durP1;ratioP1;P1;durP2;ratioP2;P2;SDS_P1;SDS_P2;PMS_P1;PMS_P2;Temp;Humidity;BMP_temperature;BMP_pressure;BME280_temperature;BME280_humidity;BME280_pressure;Samples;Min_cycle;Max_cycle;Signal;HPM_P1;HPM_P2
2024/01/27 00:00:47;;;;;;;3.13;2.33;;;;;;;;;;4983880;28;20065;-80
2024/01/27 00:03:13;;;;;;;7.70;2.97;;;;;;;;;;4982356;28;20551;-81
2024/01/27 00:05:39;;;;;;;4.80;2.05;;;;;;;;;;4990571;28;20113;-81
2024/01/27 00:08:06;;;;;;;3.85;2.88;;;;;;;;;;4983718;28;20039;-80
2024/01/27 00:10:32;;;;;;;4.30;2.30;;;;;;;;;;4991414;28;20113;-80
2024/01/27 00:12:57;;;;;;;6.35;3.45;;;;;;;;;;4971709;28;20459;-80
2024/01/27 00:15:24;;;;;;;3.72;2.33;;;;;;;;;;4983728;28;20022;-81
2024/01/27 00:17:50;;;;;;;3.22;2.10;;;;;;;;;;4983012;28;20081;-80
2024/01/27 00:20:16;;;;;;;5.57;2.47;;;;;;;;;;4990532;28;20026;-80
2024/01/27 00:22:42;;;;;;;9.35;3.40;;;;;;;;;;4983264;28;20049;-80
2024/01/27 00:25:08;;;;;;;4.47;2.53;;;;;;;;;;4988735;28;20060;-80
2024/01/27 00:27:34;;;;;;;5.97;2.30;;;;;;;;;;4986799;28;20047;-80
2024/01/27 00:30:00;;;;;;;4.10;2.72;;;;;;;;;;4982038;28;20027;-80
2024/01/27 00:32:26;;;;;;;5.03;2.60;;;;;;;;;;4985298;28;20038;-80
2024/01/27 00:34:52;;;;;;;5.82;2.42;;;;;;;;;;4984544;28;20035;-81
2024/01/27 00:37:18;;;;;;;3.63;1.80;;;;;;;;;;4982915;28;20038;-80
2024/01/27 00:39:45;;;;;;;5.10;2.20;;;;;;;;;;4985263;28;20035;-80
2024/01/27 00:42:11;;;;;;;6.72;1.73;;;;;;;;;;4989212;28;20073;-80
2024/01/27 00:44:38;;;;;;;2.83;1.85;;;;;;;;;;4984422;28;20834;-80
2024/01/27 00:47:04;;;;;;;1.90;1.52;;;;;;;;;;4984776;28;20080;-80
2024/01/27 00:49:30;;;;;;;2.70;1.98;;;;;;;;;;4975834;28;20035;-80
2024/01/27 00:51:56;;;;;;;4.30;2.60;;;;;;;;;;4976873;28;20046;-79
2024/01/27 00:54:23;;;;;;;4.53;1.90;;;;;;;;;;4991473;28;20022;-81
2024/01/27 00:56:48;;;;;;;4.32;2.45;;;;;;;;;;4983497;28;20050;-81
2024/01/27 00:59:15;;;;;;;2.78;1.88;;;;;;;;;;4981693;28;20038;-80
2024/01/27 01:01:41;;;;;;;3.22;2.50;;;;;;;;;;5005882;28;20045;-81
2024/01/27 01:04:07;;;;;;;6.55;2.42;;;;;;;;;;4984337;28;20034;-81
2024/01/27 01:06:33;;;;;;;5.03;3.10;;;;;;;;;;4988088;28;20033;-81
2024/01/27 01:08:59;;;;;;;1.80;1.23;;;;;;;;;;4995663;28;20042;-81
2024/01/27 01:11:25;;;;;;;5.30;2.05;;;;;;;;;;4976534;28;20464;-80
2024/01/27 01:13:51;;;;;;;5.15;1.58;;;;;;;;;;4988396;28;20033;-80
2024/01/27 01:16:17;;;;;;;7.82;2.65;;;;;;;;;;4983413;28;20030;-81
2024/01/27 01:18:43;;;;;;;5.93;1.95;;;;;;;;;;4993656;28;20384;-81
2024/01/27 01:21:09;;;;;;;4.00;2.78;;;;;;;;;;4993374;28;20053;-80
2024/01/27 01:23:35;;;;;;;2.67;1.63;;;;;;;;;;4991731;28;20469;-80
2024/01/27 01:26:01;;;;;;;3.47;2.47;;;;;;;;;;4983600;28;20035;-80
2024/01/27 01:28:28;;;;;;;4.50;2.03;;;;;;;;;;4988068;28;20038;-81
2024/01/27 01:30:54;;;;;;;3.60;1.95;;;;;;;;;;4989205;28;20030;-80
2024/01/27 01:33:20;;;;;;;3.22;1.88;;;;;;;;;;4987285;28;20035;-80
2024/01/27 01:35:46;;;;;;;4.15;2.47;;;;;;;;;;4989342;28;20527;-81
2024/01/27 01:38:12;;;;;;;5.20;2.80;;;;;;;;;;4981461;28;20052;-81
2024/01/27 01:40:38;;;;;;;5.38;2.58;;;;;;;;;;4986285;28;20370;-80
2024/01/27 01:43:09;;;;;;;3.03;2.08;;;;;;;;;;4973797;28;20045;-81
2024/01/27 01:45:35;;;;;;;3.63;2.30;;;;;;;;;;4978792;28;20035;-80
2024/01/27 01:48:02;;;;;;;3.33;1.67;;;;;;;;;;4992743;28;20030;-80
2024/01/27 01:50:28;;;;;;;4.60;2.33;;;;;;;;;;4987960;28;20093;-80
2024/01/27 01:52:54;;;;;;;5.85;1.20;;;;;;;;;;4991743;28;20738;-80
2024/01/27 01:55:20;;;;;;;9.25;1.95;;;;;;;;;;4985609;28;20030;-81
2024/01/27 01:57:46;;;;;;;3.45;1.85;;;;;;;;;;4993174;28;20046;-80
2024/01/27 02:00:13;;;;;;;4.22;2.05;;;;;;;;;;4978659;28;20109;-80
2024/01/27 02:02:39;;;;;;;8.13;2.33;;;;;;;;;;4988694;28;20073;-80
2024/01/27 02:05:05;;;;;;;3.88;1.45;;;;;;;;;;4979549;28;20039;-80
2024/01/27 02:07:31;;;;;;;3.75;1.63;;;;;;;;;;4985002;28;20046;-80
2024/01/27 02:09:58;;;;;;;3.42;2.22;;;;;;;;;;4990698;28;20036;-81
2024/01/27 02:12:24;;;;;;;1.58;1.20;;;;;;;;;;4973709;28;20046;-80
2024/01/27 02:14:50;;;;;;;3.70;1.67;;;;;;;;;;4987691;28;20030;-80
2024/01/27 02:17:16;;;;;;;4.30;1.90;;;;;;;;;;4981227;28;20383;-80
2024/01/27 02:19:41;;;;;;;2.85;1.85;;;;;;;;;;4990113;28;20030;-80
2024/01/27 02:22:08;;;;;;;4.50;1.95;;;;;;;;;;4984088;28;20042;-80
2024/01/27 02:24:33;;;;;;;10.10;1.63;;;;;;;;;;4991263;28;20488;-80
2024/01/27 02:26:59;;;;;;;3.20;1.58;;;;;;;;;;4979123;28;20065;-80
2024/01/27 02:29:27;;;;;;;4.97;3.25;;;;;;;;;;4992075;28;20106;-80
2024/01/27 02:31:53;;;;;;;3.38;1.83;;;;;;;;;;4983755;28;20034;-80
2024/01/27 02:34:19;;;;;;;6.70;2.28;;;;;;;;;;4991516;28;20101;-80
2024/01/27 02:36:45;;;;;;;2.28;1.58;;;;;;;;;;4986141;28;20129;-80
2024/01/27 02:39:11;;;;;;;3.00;2.17;;;;;;;;;;4992145;28;20448;-80
2024/01/27 02:41:39;;;;;;;1.77;0.93;;;;;;;;;;4985032;28;20034;-80
2024/01/27 02:44:05;;;;;;;3.28;2.28;;;;;;;;;;4978169;28;20891;-80
2024/01/27 02:46:31;;;;;;;4.72;2.15;;;;;;;;;;4984382;28;20034;-81
2024/01/27 02:48:57;;;;;;;2.75;1.85;;;;;;;;;;4982956;28;20022;-80
2024/01/27 02:51:23;;;;;;;7.85;2.03;;;;;;;;;;4986613;28;20026;-80
2024/01/27 02:53:49;;;;;;;3.83;1.73;;;;;;;;;;4981256;28;20019;-80
2024/01/27 02:56:18;;;;;;;5.53;2.05;;;;;;;;;;4986940;28;20031;-80
2024/01/27 02:58:44;;;;;;;3.58;1.65;;;;;;;;;;4974275;28;20034;-80
2024/01/27 03:01:11;;;;;;;4.18;1.70;;;;;;;;;;4985904;28;20030;-80
2024/01/27 03:03:37;;;;;;;5.85;2.05;;;;;;;;;;4985696;28;20038;-80
2024/01/27 03:06:03;;;;;;;6.63;2.47;;;;;;;;;;4981778;28;20162;-79
2024/01/27 03:08:29;;;;;;;5.00;2.35;;;;;;;;;;4985786;28;20088;-80
2024/01/27 03:10:55;;;;;;;5.30;1.80;;;;;;;;;;4984406;28;20035;-80
2024/01/27 03:13:21;;;;;;;2.00;1.20;;;;;;;;;;4989711;28;20053;-80
2024/01/27 03:15:47;;;;;;;3.33;1.60;;;;;;;;;;4987448;28;20404;-80
2024/01/27 03:18:13;;;;;;;2.30;1.45;;;;;;;;;;4991264;28;20813;-80
2024/01/27 03:20:39;;;;;;;3.92;1.73;;;;;;;;;;4985388;28;20093;-80
2024/01/27 03:23:05;;;;;;;5.53;1.55;;;;;;;;;;4979434;28;20034;-80
2024/01/27 03:25:31;;;;;;;2.03;1.13;;;;;;;;;;4985157;28;20042;-80
2024/01/27 03:27:57;;;;;;;2.05;0.80;;;;;;;;;;4987837;28;20045;-80
2024/01/27 03:30:23;;;;;;;1.90;1.33;;;;;;;;;;4987718;28;20145;-80
2024/01/27 03:32:49;;;;;;;2.55;1.73;;;;;;;;;;4981719;28;20038;-80
2024/01/27 03:35:15;;;;;;;1.45;0.88;;;;;;;;;;4987614;28;20031;-80
2024/01/27 03:37:41;;;;;;;3.53;2.05;;;;;;;;;;4987875;28;20088;-80
2024/01/27 03:40:08;;;;;;;6.15;2.85;;;;;;;;;;4985984;28;20092;-80
2024/01/27 03:42:34;;;;;;;6.60;3.33;;;;;;;;;;4974791;28;20038;-80
2024/01/27 03:45:00;;;;;;;6.13;3.63;;;;;;;;;;4981277;28;20058;-80
2024/01/27 03:47:26;;;;;;;6.47;3.88;;;;;;;;;;4990519;28;20132;-80
2024/01/27 03:49:52;;;;;;;11.85;5.45;;;;;;;;;;4976322;28;20035;-80
2024/01/27 03:52:18;;;;;;;7.05;4.78;;;;;;;;;;4971444;28;20039;-80
2024/01/27 03:54:44;;;;;;;3.85;2.45;;;;;;;;;;4982311;28;20022;-80
2024/01/27 03:57:10;;;;;;;13.80;3.95;;;;;;;;;;4989942;28;20085;-80
2024/01/27 03:59:36;;;;;;;8.95;4.28;;;;;;;;;;4988027;28;20105;-80
2024/01/27 04:02:02;;;;;;;8.63;3.63;;;;;;;;;;4991319;28;20038;-80
2024/01/27 04:04:28;;;;;;;7.93;4.43;;;;;;;;;;4989635;28;20468;-80
2024/01/27 04:06:54;;;;;;;6.45;4.63;;;;;;;;;;4988003;28;20038;-81
2024/01/27 04:09:20;;;;;;;6.60;4.10;;;;;;;;;;4989861;28;20030;-80
2024/01/27 04:11:46;;;;;;;4.03;2.78;;;;;;;;;;4982559;28;20392;-80
2024/01/27 04:14:12;;;;;;;6.10;3.72;;;;;;;;;;4987352;28;20110;-80
2024/01/27 04:16:38;;;;;;;6.15;3.28;;;;;;;;;;4983623;28;20094;-80
2024/01/27 04:19:04;;;;;;;6.47;2.95;;;;;;;;;;4988899;28;20124;-80
2024/01/27 04:21:30;;;;;;;14.40;3.33;;;;;;;;;;4979218;28;20491;-80
2024/01/27 04:23:56;;;;;;;5.00;3.38;;;;;;;;;;4987710;28;20065;-80
2024/01/27 04:26:22;;;;;;;8.18;3.42;;;;;;;;;;4977595;28;20046;-80
2024/01/27 04:28:48;;;;;;;8.10;4.47;;;;;;;;;;4977467;28;20026;-80
2024/01/27 04:31:14;;;;;;;4.45;2.75;;;;;;;;;;4980098;28;20031;-80
2024/01/27 04:33:40;;;;;;;8.70;3.75;;;;;;;;;;4975035;28;20066;-80
2024/01/27 04:36:10;;;;;;;9.77;4.22;;;;;;;;;;4984703;28;20035;-80
2024/01/27 04:38:36;;;;;;;5.68;3.10;;;;;;;;;;4977949;28;20038;-80
2024/01/27 04:41:02;;;;;;;6.22;3.08;;;;;;;;;;4988548;28;20423;-80
2024/01/27 04:43:28;;;;;;;6.50;2.70;;;;;;;;;;4990201;28;20419;-80
2024/01/27 04:45:54;;;;;;;4.90;2.72;;;;;;;;;;4981239;28;20045;-80
2024/01/27 04:48:21;;;;;;;9.77;4.70;;;;;;;;;;4983503;28;20038;-80
2024/01/27 04:50:47;;;;;;;10.60;4.20;;;;;;;;;;4982654;28;20058;-80
2024/01/27 04:53:13;;;;;;;11.38;3.58;;;;;;;;;;4986049;28;20038;-80
2024/01/27 04:55:39;;;;;;;8.55;4.68;;;;;;;;;;4988889;28;20058;-80
2024/01/27 04:58:05;;;;;;;4.85;3.15;;;;;;;;;;4983362;28;20492;-80
2024/01/27 05:00:31;;;;;;;20.13;5.80;;;;;;;;;;4989909;28;20029;-80
2024/01/27 05:03:03;;;;;;;7.57;3.15;;;;;;;;;;4977655;28;20427;-80
2024/01/27 05:05:29;;;;;;;4.40;2.70;;;;;;;;;;4985833;28;20025;-80
2024/01/27 05:07:55;;;;;;;6.75;2.75;;;;;;;;;;4974955;28;20043;-80
2024/01/27 05:10:22;;;;;;;6.93;4.03;;;;;;;;;;4983805;28;20085;-80
2024/01/27 05:12:48;;;;;;;18.95;3.47;;;;;;;;;;4986545;28;20097;-80
2024/01/27 05:15:14;;;;;;;3.70;2.67;;;;;;;;;;4986321;28;20023;-80
2024/01/27 05:17:40;;;;;;;8.60;3.60;;;;;;;;;;4983422;28;20134;-80
2024/01/27 05:20:07;;;;;;;4.60;2.85;;;;;;;;;;4983393;28;20646;-80
2024/01/27 05:22:33;;;;;;;7.13;3.95;;;;;;;;;;4986001;28;20417;-80
2024/01/27 05:24:59;;;;;;;5.05;3.53;;;;;;;;;;4985802;28;20080;-80
2024/01/27 05:27:25;;;;;;;8.98;4.18;;;;;;;;;;4983647;28;20042;-80
2024/01/27 05:29:51;;;;;;;8.05;3.03;;;;;;;;;;4979891;28;20385;-80
2024/01/27 05:32:18;;;;;;;13.75;6.30;;;;;;;;;;4975540;28;20046;-80
2024/01/27 05:34:45;;;;;;;8.35;2.80;;;;;;;;;;4978460;28;20100;-80
2024/01/27 05:37:11;;;;;;;8.00;3.65;;;;;;;;;;4987461;28;20050;-80
2024/01/27 05:39:37;;;;;;;6.25;4.05;;;;;;;;;;4990940;28;20365;-80
2024/01/27 05:42:03;;;;;;;6.38;3.97;;;;;;;;;;4986355;28;20092;-80
2024/01/27 05:44:29;;;;;;;7.35;2.25;;;;;;;;;;4992917;28;20113;-80
2024/01/27 05:46:55;;;;;;;7.53;3.90;;;;;;;;;;5007934;28;20081;-80
2024/01/27 05:49:21;;;;;;;4.95;3.15;;;;;;;;;;4983143;28;20457;-80
2024/01/27 05:51:48;;;;;;;3.97;2.55;;;;;;;;;;4979749;28;20038;-80
2024/01/27 05:54:16;;;;;;;4.47;2.85;;;;;;;;;;4989874;28;20108;-80
2024/01/27 05:56:42;;;;;;;6.88;2.30;;;;;;;;;;4984710;28;20468;-80
2024/01/27 05:59:08;;;;;;;4.53;3.55;;;;;;;;;;4981069;28;20030;-80
2024/01/27 06:01:34;;;;;;;7.35;2.35;;;;;;;;;;4982876;28;20050;-80
2024/01/27 06:04:00;;;;;;;9.30;4.07;;;;;;;;;;4985073;28;20038;-80
2024/01/27 06:06:26;;;;;;;5.32;3.95;;;;;;;;;;4991416;28;20468;-80
2024/01/27 06:08:52;;;;;;;5.70;2.80;;;;;;;;;;4985776;28;20061;-80
2024/01/27 06:11:25;;;;;;;3.90;2.95;;;;;;;;;;4988961;28;20457;-80
2024/01/27 06:13:51;;;;;;;5.68;3.58;;;;;;;;;;5001276;28;20042;-80
2024/01/27 06:16:21;;;;;;;7.20;4.53;;;;;;;;;;4975217;28;20101;-80
2024/01/27 06:18:47;;;;;;;4.95;3.10;;;;;;;;;;4985854;28;20060;-80
2024/01/27 06:21:13;;;;;;;5.07;3.20;;;;;;;;;;4999972;28;20069;-81
2024/01/27 06:23:39;;;;;;;11.18;4.93;;;;;;;;;;4993462;28;20073;-80
2024/01/27 06:26:09;;;;;;;7.07;4.22;;;;;;;;;;4991780;28;20066;-80
2024/01/27 06:28:35;;;;;;;7.75;4.50;;;;;;;;;;4979334;28;20046;-81
2024/01/27 06:31:01;;;;;;;8.60;3.38;;;;;;;;;;4987454;28;20031;-81
2024/01/27 06:33:28;;;;;;;7.15;3.63;;;;;;;;;;4992395;28;20096;-82
2024/01/27 06:35:54;;;;;;;5.05;2.80;;;;;;;;;;4996670;28;20035;-81
2024/01/27 06:41:49;;;;;;;6.22;2.67;;;;;;;;;;4968380;28;20054;-83
2024/01/27 06:44:16;;;;;;;12.25;4.03;;;;;;;;;;4935616;29;20164;-81
2024/01/27 06:46:42;;;;;;;5.10;3.45;;;;;;;;;;5019100;28;20491;-82
2024/01/27 06:49:09;;;;;;;3.55;2.33;;;;;;;;;;5049289;28;20021;-81
2024/01/27 06:51:35;;;;;;;11.93;4.07;;;;;;;;;;5032866;28;20029;-81
2024/01/27 06:54:01;;;;;;;4.13;1.77;;;;;;;;;;5025827;28;20075;-81
2024/01/27 06:56:27;;;;;;;9.40;2.90;;;;;;;;;;5034715;28;20119;-82
2024/01/27 06:58:53;;;;;;;7.10;2.85;;;;;;;;;;5033512;28;20066;-80
2024/01/27 07:01:19;;;;;;;5.95;3.05;;;;;;;;;;5017298;28;20057;-80
2024/01/27 07:03:45;;;;;;;5.65;2.35;;;;;;;;;;5020022;28;20074;-80
2024/01/27 07:06:11;;;;;;;6.57;3.85;;;;;;;;;;5019414;28;20065;-80
2024/01/27 07:08:37;;;;;;;3.10;2.20;;;;;;;;;;5029220;28;20057;-81
2024/01/27 07:11:03;;;;;;;5.28;3.17;;;;;;;;;;5034188;28;20108;-81
2024/01/27 07:13:30;;;;;;;8.07;3.58;;;;;;;;;;5033075;28;20025;-81
2024/01/27 07:15:57;;;;;;;3.40;2.20;;;;;;;;;;5020586;28;20044;-81
2024/01/27 07:18:23;;;;;;;5.20;3.25;;;;;;;;;;5015640;28;20018;-80
2024/01/27 07:20:49;;;;;;;3.45;1.73;;;;;;;;;;5018036;28;20767;-80
2024/01/27 07:23:15;;;;;;;8.02;2.08;;;;;;;;;;5015236;28;20025;-81
2024/01/27 07:25:41;;;;;;;7.50;2.92;;;;;;;;;;5024693;28;20084;-81
2024/01/27 07:28:07;;;;;;;7.85;3.50;;;;;;;;;;5026919;28;20044;-81
2024/01/27 07:30:33;;;;;;;5.45;3.63;;;;;;;;;;5023502;28;20032;-80
2024/01/27 07:32:59;;;;;;;8.95;3.42;;;;;;;;;;5027981;28;20821;-81
2024/01/27 07:35:25;;;;;;;7.50;3.67;;;;;;;;;;5024379;28;20029;-81
2024/01/27 07:37:51;;;;;;;12.90;6.50;;;;;;;;;;5029693;28;20041;-81
2024/01/27 07:40:17;;;;;;;10.85;5.45;;;;;;;;;;5016404;28;20039;-81
2024/01/27 07:42:43;;;;;;;7.90;4.15;;;;;;;;;;5011599;28;20125;-81
2024/01/27 07:45:09;;;;;;;8.02;4.00;;;;;;;;;;5011361;28;20099;-81
2024/01/27 07:47:35;;;;;;;11.18;3.40;;;;;;;;;;5019699;28;20049;-81
2024/01/27 07:50:01;;;;;;;8.65;3.30;;;;;;;;;;5021808;28;20064;-81
2024/01/27 07:52:27;;;;;;;8.20;3.08;;;;;;;;;;5026851;28;20106;-81
2024/01/27 07:54:54;;;;;;;5.38;3.28;;;;;;;;;;5013089;28;20124;-81
2024/01/27 07:57:20;;;;;;;2.88;1.67;;;;;;;;;;5018568;28;20034;-81
2024/01/27 07:59:46;;;;;;;4.60;2.30;;;;;;;;;;5027183;28;20510;-81
2024/01/27 08:02:12;;;;;;;2.03;1.65;;;;;;;;;;5028751;28;20042;-81
2024/01/27 08:04:38;;;;;;;2.63;1.58;;;;;;;;;;5028072;28;20029;-80
2024/01/27 08:07:09;;;;;;;5.05;2.35;;;;;;;;;;5025368;28;20448;-80
2024/01/27 08:09:35;;;;;;;7.22;3.28;;;;;;;;;;5022998;28;20611;-81
2024/01/27 08:12:02;;;;;;;36.25;3.55;;;;;;;;;;5029537;28;20025;-81
2024/01/27 08:14:31;;;;;;;2.53;2.03;;;;;;;;;;5027529;28;20029;-81
2024/01/27 08:16:57;;;;;;;4.38;2.83;;;;;;;;;;5027407;28;20043;-81
2024/01/27 08:19:24;;;;;;;6.78;3.63;;;;;;;;;;5027526;28;20356;-81
2024/01/27 08:21:50;;;;;;;7.05;2.55;;;;;;;;;;5008056;28;20045;-82
2024/01/27 08:24:16;;;;;;;6.68;2.65;;;;;;;;;;5023191;28;20088;-81
2024/01/27 08:26:42;;;;;;;5.70;1.83;;;;;;;;;;5021431;28;20044;-81
2024/01/27 08:29:08;;;;;;;4.00;2.67;;;;;;;;;;5028403;28;20099;-81
2024/01/27 08:31:35;;;;;;;6.47;2.72;;;;;;;;;;5029062;28;20053;-81
2024/01/27 08:34:01;;;;;;;4.18;2.80;;;;;;;;;;5029955;28;20528;-81
2024/01/27 08:36:27;;;;;;;7.32;2.58;;;;;;;;;;5028777;28;20104;-82
2024/01/27 08:38:53;;;;;;;5.13;2.03;;;;;;;;;;5020783;28;20809;-82
2024/01/27 08:41:19;;;;;;;3.25;1.77;;;;;;;;;;5018587;28;20045;-81
2024/01/27 08:43:45;;;;;;;5.25;2.80;;;;;;;;;;5037384;28;20052;-82
2024/01/27 08:46:13;;;;;;;8.10;4.97;;;;;;;;;;5061334;28;20040;-81
2024/01/27 08:48:41;;;;;;;9.73;4.70;;;;;;;;;;5037211;28;20025;-81
2024/01/27 08:51:09;;;;;;;9.70;4.20;;;;;;;;;;5043647;28;20037;-81
2024/01/27 08:53:35;;;;;;;11.38;4.30;;;;;;;;;;5032904;28;20078;-81
2024/01/27 08:56:01;;;;;;;16.33;4.57;;;;;;;;;;5025948;28;20065;-82
2024/01/27 08:58:27;;;;;;;10.70;4.35;;;;;;;;;;5047961;28;20029;-81
2024/01/27 09:00:53;;;;;;;7.57;4.97;;;;;;;;;;5049152;28;20044;-82
2024/01/27 09:03:22;;;;;;;4.38;2.63;;;;;;;;;;5017376;28;20554;-83
2024/01/27 09:05:48;;;;;;;13.18;4.10;;;;;;;;;;5048057;28;20423;-82
2024/01/27 09:08:15;;;;;;;8.65;4.55;;;;;;;;;;5047306;28;20387;-81
2024/01/27 09:10:41;;;;;;;6.93;4.43;;;;;;;;;;5042255;28;20033;-80
2024/01/27 09:13:07;;;;;;;5.55;3.78;;;;;;;;;;5049056;28;20059;-79
2024/01/27 09:15:33;;;;;;;12.98;5.20;;;;;;;;;;5050027;28;20053;-81
2024/01/27 09:17:59;;;;;;;6.25;2.75;;;;;;;;;;5035663;28;20147;-82
2024/01/27 09:20:25;;;;;;;9.00;5.28;;;;;;;;;;5023665;28;20036;-83
2024/01/27 09:22:52;;;;;;;8.10;4.18;;;;;;;;;;5034985;28;20108;-83
2024/01/27 09:25:18;;;;;;;6.55;4.03;;;;;;;;;;5036312;28;20030;-83
2024/01/27 09:27:43;;;;;;;14.52;5.57;;;;;;;;;;5053620;28;20037;-82
2024/01/27 09:30:10;;;;;;;11.52;3.72;;;;;;;;;;5053973;28;20039;-83
2024/01/27 09:32:36;;;;;;;10.15;5.93;;;;;;;;;;5040907;28;20068;-82
2024/01/27 09:35:02;;;;;;;3.55;2.90;;;;;;;;;;5046527;28;20032;-82
2024/01/27 09:37:28;;;;;;;8.68;5.00;;;;;;;;;;5052254;28;20025;-82
2024/01/27 09:39:54;;;;;;;12.57;3.55;;;;;;;;;;5048951;28;20039;-83
2024/01/27 09:42:22;;;;;;;6.55;3.78;;;;;;;;;;5046997;28;20033;-82
2024/01/27 09:44:49;;;;;;;7.30;3.75;;;;;;;;;;5049415;28;20966;-82
2024/01/27 09:47:16;;;;;;;10.07;4.40;;;;;;;;;;5046055;28;20043;-81
2024/01/27 09:49:42;;;;;;;10.48;5.72;;;;;;;;;;5045898;28;20030;-81
2024/01/27 09:52:09;;;;;;;5.15;2.90;;;;;;;;;;5038470;28;20033;-82
2024/01/27 09:54:36;;;;;;;9.07;4.10;;;;;;;;;;5047689;28;20057;-82
2024/01/27 09:57:02;;;;;;;8.82;4.57;;;;;;;;;;5041981;28;20537;-83
2024/01/27 09:59:29;;;;;;;6.47;4.93;;;;;;;;;;5048344;28;20032;-83
2024/01/27 10:01:57;;;;;;;6.03;3.92;;;;;;;;;;5028531;28;20037;-82
2024/01/27 10:04:23;;;;;;;12.57;6.05;;;;;;;;;;5034359;28;20119;-84
2024/01/27 10:06:50;;;;;;;8.80;4.35;;;;;;;;;;5032368;28;20652;-81
2024/01/27 10:09:17;;;;;;;6.68;3.22;;;;;;;;;;5044033;28;20033;-82
2024/01/27 10:11:46;;;;;;;7.05;3.45;;;;;;;;;;5049124;28;20029;-82
2024/01/27 10:14:12;;;;;;;9.07;3.13;;;;;;;;;;5039521;28;20462;-82
2024/01/27 10:16:42;;;;;;;8.60;3.47;;;;;;;;;;5039842;28;20044;-81
2024/01/27 10:19:12;;;;;;;5.47;2.50;;;;;;;;;;5048921;28;20028;-81
2024/01/27 10:21:38;;;;;;;8.40;5.00;;;;;;;;;;5047277;28;20037;-81
2024/01/27 10:24:06;;;;;;;5.15;2.42;;;;;;;;;;5042918;28;20044;-81
2024/01/27 10:26:33;;;;;;;7.95;3.22;;;;;;;;;;5042582;28;20087;-81
2024/01/27 10:28:59;;;;;;;4.90;3.15;;;;;;;;;;5057342;28;20028;-81
2024/01/27 10:31:28;;;;;;;5.00;3.45;;;;;;;;;;5046148;28;20153;-81
2024/01/27 10:33:56;;;;;;;7.32;3.03;;;;;;;;;;5054915;28;20032;-81
2024/01/27 10:36:22;;;;;;;6.18;2.92;;;;;;;;;;5047990;28;20524;-81
2024/01/27 10:38:48;;;;;;;13.55;4.18;;;;;;;;;;5048230;28;20032;-81
2024/01/27 10:41:18;;;;;;;8.75;3.80;;;;;;;;;;5041473;28;20087;-82
2024/01/27 10:43:44;;;;;;;11.23;4.53;;;;;;;;;;5042067;28;20049;-82
2024/01/27 10:46:11;;;;;;;8.07;2.97;;;;;;;;;;5043830;28;20049;-82
2024/01/27 10:48:37;;;;;;;3.83;3.15;;;;;;;;;;5040548;28;20029;-82
2024/01/27 10:51:10;;;;;;;4.70;3.63;;;;;;;;;;5050238;28;20032;-82
2024/01/27 10:53:37;;;;;;;4.20;3.38;;;;;;;;;;5029721;28;20053;-82
2024/01/27 10:56:10;;;;;;;6.40;3.40;;;;;;;;;;5046283;28;20075;-81
2024/01/27 10:58:40;;;;;;;4.18;2.72;;;;;;;;;;5046109;28;20480;-81
2024/01/27 11:01:08;;;;;;;6.72;3.88;;;;;;;;;;5047135;28;20037;-82
2024/01/27 11:03:34;;;;;;;6.95;3.80;;;;;;;;;;5045239;28;20036;-81
2024/01/27 11:06:00;;;;;;;4.03;2.85;;;;;;;;;;5050399;28;20060;-82
2024/01/27 11:08:27;;;;;;;8.15;3.33;;;;;;;;;;5037453;28;20030;-81
2024/01/27 11:10:53;;;;;;;5.15;3.33;;;;;;;;;;5047741;28;20120;-80
2024/01/27 11:13:20;;;;;;;2.45;1.77;;;;;;;;;;5049155;28;20016;-81
2024/01/27 11:15:53;;;;;;;2.95;2.15;;;;;;;;;;5049573;28;20033;-83
2024/01/27 11:18:19;;;;;;;5.85;3.17;;;;;;;;;;5051670;28;20029;-82
2024/01/27 11:20:45;;;;;;;5.78;2.85;;;;;;;;;;5044569;28;20136;-80
2024/01/27 11:23:14;;;;;;;4.93;2.78;;;;;;;;;;5050059;28;20383;-81
2024/01/27 11:25:40;;;;;;;5.43;3.25;;;;;;;;;;5052349;28;20043;-80
2024/01/27 11:28:14;;;;;;;8.43;3.70;;;;;;;;;;5052898;28;20565;-80
2024/01/27 11:30:40;;;;;;;6.35;3.30;;;;;;;;;;5061482;28;20044;-80
2024/01/27 11:33:06;;;;;;;9.07;4.13;;;;;;;;;;5043501;28;20021;-80
2024/01/27 11:35:32;;;;;;;5.97;3.60;;;;;;;;;;5047758;28;20060;-80
2024/01/27 11:37:58;;;;;;;4.28;3.20;;;;;;;;;;5052686;28;20087;-80
2024/01/27 11:40:24;;;;;;;4.85;2.30;;;;;;;;;;5044813;28;20029;-80
2024/01/27 11:43:00;;;;;;;6.85;3.25;;;;;;;;;;5043211;28;20578;-80
2024/01/27 11:45:30;;;;;;;6.78;3.20;;;;;;;;;;5049283;28;20458;-80
2024/01/27 11:47:56;;;;;;;4.55;2.80;;;;;;;;;;5049757;28;20044;-80
2024/01/27 11:50:22;;;;;;;3.35;2.42;;;;;;;;;;5053947;28;20083;-80
2024/01/27 11:52:49;;;;;;;3.47;2.15;;;;;;;;;;5052028;28;20108;-80
2024/01/27 11:55:15;;;;;;;5.78;2.90;;;;;;;;;;5051149;28;20096;-80
2024/01/27 11:57:42;;;;;;;7.07;2.42;;;;;;;;;;5055782;28;20048;-80
2024/01/27 12:00:11;;;;;;;6.00;2.30;;;;;;;;;;5044603;28;20112;-80
2024/01/27 12:02:38;;;;;;;7.30;3.03;;;;;;;;;;5045525;28;20049;-80
2024/01/27 12:05:05;;;;;;;5.55;2.55;;;;;;;;;;5049459;28;20055;-80
2024/01/27 12:07:31;;;;;;;2.97;1.90;;;;;;;;;;5045098;28;20095;-80
2024/01/27 12:09:57;;;;;;;3.25;2.10;;;;;;;;;;5044583;28;20029;-80
2024/01/27 12:12:23;;;;;;;15.45;2.97;;;;;;;;;;5040886;28;20383;-80
2024/01/27 12:14:50;;;;;;;7.13;1.98;;;;;;;;;;5049754;28;20032;-80
2024/01/27 12:17:16;;;;;;;3.75;2.30;;;;;;;;;;5054109;28;20060;-80
2024/01/27 12:19:53;;;;;;;6.15;2.58;;;;;;;;;;5043452;28;20036;-80
2024/01/27 12:22:28;;;;;;;4.93;2.72;;;;;;;;;;5046854;28;20030;-80
2024/01/27 12:25:08;;;;;;;5.55;2.38;;;;;;;;;;5047680;28;20031;-80
2024/01/27 12:27:34;;;;;;;3.30;2.55;;;;;;;;;;5050495;28;20033;-82
2024/01/27 12:30:04;;;;;;;5.97;1.95;;;;;;;;;;5046669;28;20029;-81
2024/01/27 12:32:30;;;;;;;7.68;2.67;;;;;;;;;;5049698;28;20024;-81
2024/01/27 12:34:58;;;;;;;6.35;2.72;;;;;;;;;;5040861;28;20071;-81
2024/01/27 12:37:24;;;;;;;5.32;2.72;;;;;;;;;;5035351;28;20030;-80
2024/01/27 12:39:50;;;;;;;5.00;3.05;;;;;;;;;;5022103;28;20055;-81
2024/01/27 12:42:17;;;;;;;6.35;3.30;;;;;;;;;;5040156;28;20747;-81
2024/01/27 12:44:43;;;;;;;3.95;2.10;;;;;;;;;;5021969;28;20479;-81
2024/01/27 12:47:12;;;;;;;3.42;2.35;;;;;;;;;;5020580;28;20069;-81
2024/01/27 12:49:38;;;;;;;5.45;3.70;;;;;;;;;;5034431;28;20026;-81
2024/01/27 12:52:05;;;;;;;7.53;3.13;;;;;;;;;;5042114;28;20971;-81
2024/01/27 12:54:31;;;;;;;3.97;1.88;;;;;;;;;;5035796;28;20022;-81
2024/01/27 12:56:57;;;;;;;6.78;2.55;;;;;;;;;;5022187;28;20041;-81
2024/01/27 12:59:23;;;;;;;3.13;1.98;;;;;;;;;;5041860;28;20482;-81
2024/01/27 13:01:50;;;;;;;4.72;2.03;;;;;;;;;;5032076;28;20052;-81
2024/01/27 13:04:16;;;;;;;4.68;2.95;;;;;;;;;;5022103;28;20061;-81
2024/01/27 13:06:42;;;;;;;2.72;1.98;;;;;;;;;;5035589;28;20037;-81
2024/01/27 13:09:11;;;;;;;5.10;2.55;;;;;;;;;;5049511;28;20084;-81
2024/01/27 13:11:37;;;;;;;6.50;2.08;;;;;;;;;;5035141;28;20033;-81
2024/01/27 13:14:04;;;;;;;7.45;2.92;;;;;;;;;;5026279;28;20477;-81
2024/01/27 13:16:30;;;;;;;4.15;2.13;;;;;;;;;;5033826;28;20549;-81
2024/01/27 13:18:56;;;;;;;2.33;1.25;;;;;;;;;;5038620;28;20105;-81
2024/01/27 13:21:22;;;;;;;1.90;1.15;;;;;;;;;;5022466;28;20034;-81
2024/01/27 13:23:48;;;;;;;5.07;2.10;;;;;;;;;;5025657;28;20044;-81
2024/01/27 13:26:15;;;;;;;2.17;1.45;;;;;;;;;;5012861;28;20052;-82
2024/01/27 13:28:41;;;;;;;4.07;1.90;;;;;;;;;;5040546;28;20029;-81
2024/01/27 13:31:07;;;;;;;2.85;1.95;;;;;;;;;;5055226;28;20115;-82
2024/01/27 13:33:35;;;;;;;6.80;1.33;;;;;;;;;;5042527;28;20482;-81
2024/01/27 13:36:01;;;;;;;1.73;1.08;;;;;;;;;;5056532;28;20479;-81
2024/01/27 13:38:27;;;;;;;3.63;1.85;;;;;;;;;;5060594;28;20108;-81
2024/01/27 13:40:53;;;;;;;2.50;0.88;;;;;;;;;;5037756;28;20041;-82
2024/01/27 13:43:19;;;;;;;3.80;1.85;;;;;;;;;;5058253;28;20052;-81
2024/01/27 13:45:46;;;;;;;2.72;1.20;;;;;;;;;;5067349;28;20063;-81
2024/01/27 13:48:13;;;;;;;2.80;1.55;;;;;;;;;;5051835;28;20115;-81
2024/01/27 13:50:39;;;;;;;3.35;1.65;;;;;;;;;;5029262;28;20095;-81
2024/01/27 13:53:06;;;;;;;2.85;1.45;;;;;;;;;;5047459;28;20037;-81
2024/01/27 13:55:32;;;;;;;1.80;1.05;;;;;;;;;;5049285;28;20108;-81
2024/01/27 13:57:58;;;;;;;3.60;1.65;;;;;;;;;;5051043;28;20632;-81
2024/01/27 14:00:24;;;;;;;4.35;1.80;;;;;;;;;;5060033;28;20089;-81
2024/01/27 14:02:50;;;;;;;2.10;1.50;;;;;;;;;;5050838;28;20051;-81
2024/01/27 14:05:17;;;;;;;2.08;0.70;;;;;;;;;;5059814;28;20036;-82
2024/01/27 14:07:43;;;;;;;5.10;1.73;;;;;;;;;;5047245;28;20034;-81
2024/01/27 14:10:09;;;;;;;1.50;0.95;;;;;;;;;;5058594;28;20032;-81
2024/01/27 14:12:35;;;;;;;2.88;1.88;;;;;;;;;;5054096;28;20080;-81
2024/01/27 14:15:08;;;;;;;2.60;1.40;;;;;;;;;;5047629;28;20444;-81
2024/01/27 14:17:38;;;;;;;1.35;0.80;;;;;;;;;;5052452;28;20033;-81
2024/01/27 14:20:04;;;;;;;2.35;0.85;;;;;;;;;;5032255;28;20049;-81
2024/01/27 14:22:31;;;;;;;6.55;2.08;;;;;;;;;;5043881;28;20033;-81
2024/01/27 14:24:57;;;;;;;1.05;0.70;;;;;;;;;;5056309;28;20068;-81
2024/01/27 14:27:26;;;;;;;4.40;1.27;;;;;;;;;;5050853;28;20072;-81
2024/01/27 14:29:56;;;;;;;2.03;1.08;;;;;;;;;;5049482;28;20094;-81
2024/01/27 14:32:22;;;;;;;1.42;0.77;;;;;;;;;;5048272;28;20033;-81
2024/01/27 14:34:48;;;;;;;0.80;0.60;;;;;;;;;;5038435;28;20041;-81
2024/01/27 14:37:16;;;;;;;2.25;1.00;;;;;;;;;;5043827;28;20041;-81
2024/01/27 14:39:44;;;;;;;1.45;0.75;;;;;;;;;;5050948;28;20032;-81